Time;durP1;ratioP1;P1;durP2;ratioP2;P2;SDS_P1;SDS_P2;PMS_P1;PMS_P2;Temp;Humidity;BMP_temperature;BMP_pressure;BME280_temperature;BME280_humidity;BME280_pressure;Samples;Min_cycle;Max_cycle;Signal;HPM_P1;HPM_P2
2022/08/29 00:00:18;;;;;;;6.93;3.30;;;15.50;99.90;;;;;;4988159;28;20080;-85
2022/08/29 00:02:49;;;;;;;9.73;3.35;;;15.50;99.90;;;;;;5001969;28;20402;-85
2022/08/29 00:05:20;;;;;;;5.90;3.50;;;15.50;99.90;;;;;;4995206;28;20090;-85
2022/08/29 00:07:46;;;;;;;7.85;3.60;;;15.50;99.90;;;;;;4990071;28;20054;-85
2022/08/29 00:10:13;;;;;;;7.57;3.75;;;15.40;99.90;;;;;;4990096;28;20197;-85
2022/08/29 00:12:38;;;;;;;8.60;3.40;;;15.50;60.20;;;;;;4990965;28;20045;-85
2022/08/29 00:15:06;;;;;;;6.35;3.60;;;15.50;1.00;;;;;;5022642;28;20042;-85
2022/08/29 00:17:32;;;;;;;7.03;3.88;;;15.50;1.00;;;;;;4999956;28;20077;-85
2022/08/29 00:19:58;;;;;;;7.13;3.60;;;15.50;1.00;;;;;;5018992;28;20077;-85
2022/08/29 00:22:24;;;;;;;7.47;3.70;;;15.50;99.90;;;;;;4984894;28;20042;-85
2022/08/29 00:24:49;;;;;;;7.40;3.80;;;15.50;1.00;;;;;;4983659;28;20045;-84
2022/08/29 00:27:15;;;;;;;8.68;3.63;;;15.50;99.90;;;;;;4987660;28;20537;-85
2022/08/29 00:29:41;;;;;;;7.53;3.30;;;15.50;99.90;;;;;;5041602;28;20048;-85
2022/08/29 00:32:07;;;;;;;9.32;4.40;;;15.50;99.90;;;;;;4989414;28;20038;-85
2022/08/29 00:34:32;;;;;;;10.98;3.72;;;15.50;1.00;;;;;;5038467;28;20109;-85
2022/08/29 00:36:59;;;;;;;10.27;4.32;;;15.50;99.90;;;;;;4996669;28;21080;-85
2022/08/29 00:39:24;;;;;;;9.05;3.88;;;15.50;1.00;;;;;;5000829;28;20041;-85
2022/08/29 00:41:50;;;;;;;8.77;4.00;;;15.40;1.00;;;;;;4992519;28;20517;-86
2022/08/29 00:44:16;;;;;;;9.38;3.58;;;15.40;21.20;;;;;;5007554;28;20044;-85
2022/08/29 00:46:45;;;;;;;6.63;3.90;;;15.40;1.00;;;;;;5016020;28;20053;-85
2022/08/29 00:49:13;;;;;;;7.78;3.88;;;15.40;99.90;;;;;;4985527;28;20065;-85
2022/08/29 00:51:39;;;;;;;6.75;3.75;;;15.40;99.90;;;;;;4983247;28;20112;-86
2022/08/29 00:54:10;;;;;;;8.05;3.83;;;15.40;47.30;;;;;;5020101;28;20121;-86
2022/08/29 00:56:38;;;;;;;7.80;3.78;;;15.40;17.40;;;;;;4986640;28;20146;-85
2022/08/29 00:59:16;;;;;;;5.75;3.65;;;15.40;99.90;;;;;;5016841;28;20038;-85
2022/08/29 01:01:41;;;;;;;8.80;4.28;;;15.40;99.90;;;;;;4988270;28;20045;-85
2022/08/29 01:04:08;;;;;;;7.63;4.03;;;15.30;99.90;;;;;;5007544;28;20044;-85
2022/08/29 01:06:34;;;;;;;9.10;3.97;;;15.40;99.90;;;;;;5021206;28;20068;-85
2022/08/29 01:09:01;;;;;;;8.50;3.55;;;15.30;99.90;;;;;;5018720;28;20041;-85
2022/08/29 01:14:16;;;;;;;9.55;4.20;;;15.30;99.90;;;;;;5010805;28;20038;-85
2022/08/29 01:16:43;;;;;;;7.90;3.60;;;15.30;1.00;;;;;;4985486;28;20337;-85
2022/08/29 01:19:36;;;;;;;6.88;3.80;;;15.30;13.50;;;;;;5034635;28;20127;-85
2022/08/29 01:22:13;;;;;;;8.30;4.20;;;15.30;1.00;;;;;;4987222;28;20088;-84
2022/08/29 01:24:42;;;;;;;6.32;4.28;;;15.20;90.50;;;;;;5018541;28;20041;-85
2022/08/29 01:27:11;;;;;;;8.02;4.40;;;15.30;71.50;;;;;;5008728;28;20072;-85
2022/08/29 01:29:37;;;;;;;9.50;4.65;;;15.30;2.00;;;;;;4992317;28;20117;-85
2022/08/29 01:32:03;;;;;;;8.90;4.00;;;15.30;17.80;;;;;;4990098;28;20042;-85
2022/08/29 01:34:29;;;;;;;11.25;4.20;;;15.30;24.40;;;;;;5023486;28;20124;-84
2022/08/29 01:37:02;;;;;;;8.00;3.72;;;15.30;93.40;;;;;;4974065;28;20053;-85
2022/08/29 01:39:31;;;;;;;5.50;3.47;;;15.30;99.90;;;;;;5021343;28;20124;-85
2022/08/29 01:41:58;;;;;;;9.75;4.28;;;15.30;99.90;;;;;;4991314;28;20484;-84
2022/08/29 01:44:25;;;;;;;7.93;4.07;;;15.30;99.90;;;;;;4991121;28;20139;-84
2022/08/29 01:46:54;;;;;;;8.48;3.83;;;15.30;99.90;;;;;;5038681;28;20091;-85
2022/08/29 01:49:21;;;;;;;10.52;4.07;;;15.40;99.90;;;;;;5002585;28;20409;-85
2022/08/29 01:51:47;;;;;;;8.10;3.63;;;15.40;99.90;;;;;;5019959;28;20330;-85
2022/08/29 01:54:14;;;;;;;7.88;3.42;;;15.40;99.90;;;;;;4988161;28;20979;-85
2022/08/29 01:56:43;;;;;;;7.90;3.92;;;15.40;99.90;;;;;;4987520;28;20076;-85
2022/08/29 01:59:12;;;;;;;10.57;3.90;;;15.40;99.90;;;;;;4994178;28;20364;-85
2022/08/29 02:01:42;;;;;;;8.20;3.72;;;15.40;1.00;;;;;;5005383;28;20049;-85
2022/08/29 02:04:08;;;;;;;8.65;4.25;;;15.40;87.50;;;;;;5016392;28;20379;-85
2022/08/29 02:06:35;;;;;;;9.90;4.30;;;15.50;99.90;;;;;;5005037;28;20449;-85
2022/08/29 02:09:02;;;;;;;6.05;3.10;;;15.50;99.90;;;;;;4987188;28;20038;-85
2022/08/29 02:11:27;;;;;;;11.40;3.30;;;15.60;99.90;;;;;;5017755;28;20034;-84
2022/08/29 02:13:56;;;;;;;6.63;3.40;;;15.60;1.00;;;;;;5016343;28;20065;-84
2022/08/29 02:16:23;;;;;;;11.23;3.00;;;15.60;1.00;;;;;;5005567;28;20038;-85
2022/08/29 02:18:50;;;;;;;8.18;3.65;;;15.60;1.00;;;;;;5000003;28;20360;-85
2022/08/29 02:21:19;;;;;;;7.35;3.50;;;15.60;99.90;;;;;;4985214;28;20042;-85
2022/08/29 02:23:45;;;;;;;10.35;3.38;;;15.60;99.90;;;;;;5004176;28;20050;-85
2022/08/29 02:26:11;;;;;;;10.23;4.65;;;15.60;1.00;;;;;;5036042;28;20421;-85
2022/08/29 02:28:37;;;;;;;6.22;3.70;;;15.60;1.00;;;;;;5024346;28;20037;-85
2022/08/29 02:31:04;;;;;;;9.95;3.60;;;15.60;99.90;;;;;;5026675;28;20044;-85
2022/08/29 02:33:31;;;;;;;7.38;3.67;;;15.60;1.00;;;;;;5033898;28;20087;-85
2022/08/29 02:35:57;;;;;;;6.93;3.85;;;15.60;43.00;;;;;;5014718;28;20084;-85
2022/08/29 02:38:23;;;;;;;7.65;3.58;;;15.60;99.90;;;;;;5018068;28;20311;-86
2022/08/29 02:40:49;;;;;;;6.32;3.50;;;15.60;99.90;;;;;;5005267;28;20033;-85
2022/08/29 02:43:18;;;;;;;7.97;3.28;;;15.60;99.90;;;;;;4983699;28;20402;-85
2022/08/29 02:45:45;;;;;;;8.55;4.00;;;15.70;99.90;;;;;;4999775;28;20081;-85
2022/08/29 02:48:11;;;;;;;7.95;3.70;;;15.60;99.90;;;;;;5032205;28;20025;-85
2022/08/29 02:50:46;;;;;;;8.52;3.42;;;15.70;99.90;;;;;;5006431;28;20042;-85
2022/08/29 02:53:14;;;;;;;9.95;3.38;;;15.70;99.90;;;;;;5022082;28;20413;-85
2022/08/29 02:55:40;;;;;;;10.73;3.80;;;15.70;99.90;;;;;;5015851;28;20547;-85
2022/08/29 02:58:07;;;;;;;9.27;3.70;;;15.60;99.90;;;;;;5018136;28;20526;-85
2022/08/29 03:00:34;;;;;;;7.50;3.35;;;15.60;99.90;;;;;;4996885;28;20414;-85
2022/08/29 03:03:01;;;;;;;13.57;4.10;;;15.60;1.00;;;;;;4996690;28;20431;-85
2022/08/29 03:05:31;;;;;;;7.68;3.38;;;15.60;99.90;;;;;;4983451;28;20077;-85
2022/08/29 03:07:57;;;;;;;9.95;3.80;;;15.70;99.90;;;;;;5015511;28;20124;-85
2022/08/29 03:10:23;;;;;;;6.05;2.90;;;15.60;99.90;;;;;;5015417;28;20467;-84
2022/08/29 03:12:50;;;;;;;7.63;3.00;;;15.70;1.00;;;;;;4984564;28;20042;-85
2022/08/29 03:15:16;;;;;;;6.00;3.00;;;15.70;71.80;;;;;;5006978;28;20485;-85
2022/08/29 03:17:43;;;;;;;7.93;3.30;;;15.70;33.10;;;;;;5027389;28;20065;-85
2022/08/29 03:20:10;;;;;;;6.60;3.17;;;15.70;99.90;;;;;;5009732;28;20461;-85
2022/08/29 03:22:36;;;;;;;8.73;2.90;;;15.70;99.90;;;;;;4980962;28;20060;-85
2022/08/29 03:25:04;;;;;;;7.57;3.05;;;15.70;99.90;;;;;;4985497;28;20485;-85
2022/08/29 03:27:31;;;;;;;8.82;3.25;;;15.80;99.90;;;;;;4987548;28;20118;-85
2022/08/29 03:29:57;;;;;;;7.78;3.05;;;15.80;99.90;;;;;;5041131;28;20498;-85
2022/08/29 03:32:24;;;;;;;7.95;2.67;;;15.80;99.90;;;;;;5003764;28;20037;-85
2022/08/29 03:34:50;;;;;;;9.57;3.10;;;15.80;99.90;;;;;;4985766;28;20048;-85
2022/08/29 03:37:15;;;;;;;8.43;3.10;;;15.80;99.90;;;;;;4993448;28;20034;-85
2022/08/29 03:39:41;;;;;;;7.85;3.50;;;15.80;99.90;;;;;;4978655;28;20212;-85
2022/08/29 03:42:07;;;;;;;7.32;2.80;;;15.90;99.90;;;;;;5036834;28;20037;-85
2022/08/29 03:44:38;;;;;;;7.82;2.80;;;15.90;99.90;;;;;;5019562;28;20088;-85
2022/08/29 03:47:04;;;;;;;13.25;3.40;;;15.90;99.90;;;;;;4989617;28;20071;-85
2022/08/29 03:49:30;;;;;;;9.52;3.15;;;15.90;99.90;;;;;;5020078;28;20033;-85
2022/08/29 03:51:56;;;;;;;6.45;2.63;;;15.90;99.90;;;;;;5005810;28;20045;-85
2022/08/29 03:54:22;;;;;;;8.02;2.53;;;15.90;99.90;;;;;;5037256;28;20461;-85
2022/08/29 03:56:51;;;;;;;11.55;3.33;;;15.90;99.90;;;;;;4988305;28;20034;-85
2022/08/29 03:59:18;;;;;;;8.30;2.88;;;15.90;99.90;;;;;;4988740;28;20087;-85
2022/08/29 04:01:46;;;;;;;6.32;2.78;;;15.90;99.90;;;;;;5003001;28;20038;-85
2022/08/29 04:05:05;;;;;;;6.63;3.22;;;15.90;99.90;;;;;;5016282;28;20035;-85
2022/08/29 04:06:58;;;;;;;7.95;2.83;;;15.90;99.90;;;;;;5035798;28;20317;-84
2022/08/29 04:09:24;;;;;;;8.60;2.67;;;15.90;99.90;;;;;;4999425;28;20037;-85
2022/08/29 04:11:51;;;;;;;10.18;3.38;;;15.90;99.90;;;;;;5025449;28;20041;-85
2022/08/29 04:14:19;;;;;;;7.78;2.92;;;16.00;99.90;;;;;;5025052;28;20374;-85
2022/08/29 04:16:49;;;;;;;7.25;3.22;;;15.90;99.90;;;;;;4992066;28;20046;-85
2022/08/29 04:19:19;;;;;;;7.90;2.72;;;15.90;99.90;;;;;;5032413;28;20521;-85
2022/08/29 04:21:47;;;;;;;6.32;3.10;;;15.90;99.90;;;;;;4995651;28;20448;-85
2022/08/29 04:24:14;;;;;;;7.05;2.58;;;16.00;99.90;;;;;;5038458;28;20037;-84
2022/08/29 04:26:40;;;;;;;10.77;3.08;;;15.90;99.90;;;;;;5024965;28;20030;-85
2022/08/29 04:29:10;;;;;;;8.00;3.08;;;15.90;99.90;;;;;;4989341;28;20107;-85
2022/08/29 04:31:38;;;;;;;9.68;3.10;;;15.90;99.90;;;;;;5021503;28;20054;-85
2022/08/29 04:34:05;;;;;;;9.57;2.95;;;15.90;99.90;;;;;;5017004;28;20038;-85
2022/08/29 04:36:36;;;;;;;12.02;2.80;;;16.00;99.90;;;;;;4993323;28;20327;-84
2022/08/29 04:39:04;;;;;;;7.35;2.92;;;15.80;99.90;;;;;;5031365;28;20049;-85
2022/08/29 04:41:29;;;;;;;7.03;2.80;;;15.90;99.90;;;;;;5039522;28;20108;-86
2022/08/29 04:43:55;;;;;;;8.93;2.83;;;15.80;99.90;;;;;;4997050;28;20116;-85
2022/08/29 04:46:20;;;;;;;9.30;2.92;;;15.80;99.90;;;;;;4993368;28;20122;-85
2022/08/29 04:48:46;;;;;;;7.10;3.22;;;15.70;99.90;;;;;;5024739;28;20037;-85
2022/08/29 04:51:12;;;;;;;10.18;3.28;;;15.70;99.90;;;;;;5022902;28;20560;-85
2022/08/29 04:53:38;;;;;;;8.07;3.33;;;15.70;99.90;;;;;;5019707;28;20050;-85
2022/08/29 04:56:07;;;;;;;9.20;2.90;;;15.70;99.90;;;;;;5022501;28;20148;-85
2022/08/29 04:58:35;;;;;;;9.30;3.10;;;15.70;99.90;;;;;;5037028;28;20034;-85
2022/08/29 05:01:01;;;;;;;8.95;3.17;;;15.60;99.90;;;;;;4995140;28;20511;-85
2022/08/29 05:03:27;;;;;;;9.75;3.53;;;15.70;99.90;;;;;;5038049;28;20050;-85
2022/08/29 05:06:01;;;;;;;8.18;3.10;;;15.70;99.90;;;;;;5037999;28;20052;-85
2022/08/29 05:08:29;;;;;;;8.63;3.22;;;15.80;99.90;;;;;;4975144;28;20049;-84
2022/08/29 05:10:54;;;;;;;8.52;3.17;;;15.80;99.90;;;;;;5018145;28;20260;-85
2022/08/29 05:13:23;;;;;;;8.02;3.10;;;15.80;99.90;;;;;;5002946;28;20398;-84
2022/08/29 05:15:48;;;;;;;9.20;3.30;;;15.80;99.90;;;;;;5024396;28;20677;-85
2022/08/29 05:18:18;;;;;;;7.90;3.28;;;15.80;99.90;;;;;;5011630;28;20087;-85
2022/08/29 05:20:47;;;;;;;6.70;3.17;;;15.90;99.90;;;;;;4978517;28;21693;-85
2022/08/29 05:23:14;;;;;;;8.40;3.35;;;15.90;99.90;;;;;;4980087;28;20042;-85
2022/08/29 05:25:40;;;;;;;7.68;3.33;;;15.80;99.90;;;;;;4999828;28;20041;-85
2022/08/29 05:28:06;;;;;;;7.95;3.38;;;15.80;99.90;;;;;;5004886;28;20385;-85
2022/08/29 05:30:32;;;;;;;8.40;3.17;;;15.80;99.90;;;;;;5004614;28;20045;-84
2022/08/29 05:32:58;;;;;;;9.00;3.20;;;15.80;99.90;;;;;;4984921;28;20196;-85
2022/08/29 05:35:25;;;;;;;11.48;3.00;;;15.80;99.90;;;;;;5005497;28;20041;-84
2022/08/29 05:37:50;;;;;;;9.63;3.33;;;15.80;99.90;;;;;;5001465;28;20343;-85
2022/08/29 05:40:17;;;;;;;8.68;3.40;;;15.80;99.90;;;;;;4987461;28;20051;-85
2022/08/29 05:42:43;;;;;;;5.97;2.95;;;15.80;99.90;;;;;;5018086;28;20464;-85
2022/08/29 05:45:09;;;;;;;9.93;3.30;;;15.80;99.90;;;;;;4983813;28;20041;-85
2022/08/29 05:47:35;;;;;;;7.97;3.00;;;15.90;99.90;;;;;;4996523;28;20516;-85
2022/08/29 05:50:01;;;;;;;6.47;3.38;;;16.00;99.90;;;;;;5000206;28;20219;-85
2022/08/29 05:52:27;;;;;;;9.98;3.28;;;16.00;99.90;;;;;;5003199;28;20045;-85
2022/08/29 05:54:53;;;;;;;8.32;3.38;;;16.00;99.90;;;;;;4989628;28;20041;-85
2022/08/29 05:57:21;;;;;;;8.38;3.30;;;16.00;99.90;;;;;;5032112;28;20111;-85
2022/08/29 05:59:49;;;;;;;7.45;3.25;;;16.00;99.90;;;;;;5029299;28;20095;-84
2022/08/29 06:02:16;;;;;;;10.25;3.75;;;16.10;99.90;;;;;;5000214;28;20041;-85
2022/08/29 06:04:42;;;;;;;8.73;3.45;;;16.20;99.90;;;;;;4984966;28;20041;-85
2022/08/29 06:07:08;;;;;;;13.15;3.55;;;16.20;99.90;;;;;;4986646;28;20551;-86
2022/08/29 06:09:38;;;;;;;8.40;4.18;;;16.30;99.90;;;;;;5002981;28;20251;-85
2022/08/29 06:12:07;;;;;;;7.85;3.58;;;16.30;99.90;;;;;;4985602;28;20056;-85
2022/08/29 06:14:33;;;;;;;12.65;3.78;;;16.50;99.90;;;;;;5003626;28;20498;-84
2022/08/29 06:16:59;;;;;;;9.35;3.55;;;16.50;99.90;;;;;;4996236;28;20133;-86
2022/08/29 06:19:24;;;;;;;9.02;3.20;;;16.60;63.60;;;;;;5001889;28;20123;-85
2022/08/29 06:21:53;;;;;;;8.27;2.90;;;16.60;99.90;;;;;;5017145;28;20266;-85
2022/08/29 06:24:18;;;;;;;7.97;3.50;;;16.70;1.00;;;;;;4998792;28;20041;-85
2022/08/29 06:26:44;;;;;;;8.43;3.47;;;16.80;1.00;;;;;;4990439;28;20393;-85
2022/08/29 06:29:10;;;;;;;8.23;3.88;;;16.90;41.00;;;;;;4987812;28;20041;-85
2022/08/29 06:31:36;;;;;;;11.30;3.78;;;17.00;99.90;;;;;;5001989;28;20417;-85
2022/08/29 06:34:04;;;;;;;9.35;3.40;;;17.10;99.90;;;;;;4984631;28;20104;-85
2022/08/29 06:36:31;;;;;;;8.63;3.47;;;17.10;99.90;;;;;;4981610;28;20112;-85
2022/08/29 06:38:59;;;;;;;7.03;3.15;;;17.20;99.90;;;;;;5003425;28;20092;-85
2022/08/29 06:41:25;;;;;;;8.70;3.30;;;17.30;99.90;;;;;;5036442;28;20042;-85
2022/08/29 06:43:51;;;;;;;7.32;3.00;;;17.40;99.90;;;;;;5034756;28;20461;-85
2022/08/29 06:46:32;;;;;;;7.07;3.10;;;17.30;99.90;;;;;;5005047;28;20040;-84
2022/08/29 06:49:00;;;;;;;5.82;3.38;;;17.40;99.90;;;;;;5020105;28;20068;-84
2022/08/29 06:51:27;;;;;;;8.80;3.40;;;17.40;99.90;;;;;;5001340;28;20037;-84
2022/08/29 06:53:55;;;;;;;11.75;3.50;;;17.50;99.90;;;;;;5019670;28;20133;-85
2022/08/29 06:56:20;;;;;;;7.40;3.22;;;17.60;99.90;;;;;;4991591;28;20406;-85
2022/08/29 06:58:46;;;;;;;8.93;3.65;;;17.60;99.90;;;;;;5007852;28;20200;-85
2022/08/29 07:01:14;;;;;;;12.68;3.33;;;17.60;99.90;;;;;;4987285;28;20042;-85
2022/08/29 07:03:40;;;;;;;8.38;2.80;;;17.80;99.90;;;;;;5023115;28;20523;-85
2022/08/29 07:06:07;;;;;;;11.60;3.63;;;17.70;99.90;;;;;;4984531;28;20034;-85
2022/08/29 07:08:34;;;;;;;7.70;3.60;;;17.70;79.30;;;;;;5018809;28;20421;-85
2022/08/29 07:11:00;;;;;;;8.55;3.20;;;17.80;1.00;;;;;;5035531;28;20393;-84
2022/08/29 07:13:26;;;;;;;6.55;3.30;;;17.90;55.10;;;;;;5033874;28;20061;-85
2022/08/29 07:15:52;;;;;;;6.85;3.03;;;17.90;99.90;;;;;;4991647;28;20055;-85
2022/08/29 07:18:18;;;;;;;8.63;2.88;;;17.90;99.90;;;;;;4992087;28;20527;-85
2022/08/29 07:20:44;;;;;;;9.88;4.05;;;18.00;99.90;;;;;;4987766;28;20523;-85
2022/08/29 07:23:10;;;;;;;12.25;3.55;;;18.10;99.90;;;;;;5018825;28;20124;-85
2022/08/29 07:25:36;;;;;;;8.82;2.97;;;18.10;99.90;;;;;;5014904;28;20034;-84
2022/08/29 07:28:02;;;;;;;10.85;3.78;;;18.20;99.90;;;;;;5012308;28;20036;-85
2022/08/29 07:30:27;;;;;;;10.50;3.30;;;18.20;99.90;;;;;;5033894;28;20041;-85
2022/08/29 07:32:53;;;;;;;12.23;3.40;;;18.30;99.90;;;;;;5020820;28;20045;-85
2022/08/29 07:35:20;;;;;;;10.95;3.60;;;18.40;99.90;;;;;;4990640;28;20042;-85
2022/08/29 07:37:45;;;;;;;9.68;3.30;;;18.40;95.30;;;;;;5020385;28;20493;-85
2022/08/29 07:40:13;;;;;;;10.93;3.42;;;18.50;26.40;;;;;;4991931;28;20042;-85
2022/08/29 07:42:39;;;;;;;9.75;3.50;;;18.50;1.00;;;;;;5006007;28;20960;-85
2022/08/29 07:45:09;;;;;;;11.35;3.33;;;18.70;1.00;;;;;;4991033;28;20286;-85
2022/08/29 07:47:35;;;;;;;8.75;3.17;;;18.90;99.90;;;;;;5024523;28;20041;-86
2022/08/29 07:50:06;;;;;;;9.85;3.38;;;19.00;23.40;;;;;;4993382;28;20030;-85
2022/08/29 07:52:33;;;;;;;10.93;3.47;;;19.40;12.40;;;;;;4992814;28;20141;-84
2022/08/29 07:54:59;;;;;;;15.60;3.97;;;19.50;99.90;;;;;;4980974;28;20137;-86
2022/08/29 07:57:25;;;;;;;9.70;3.47;;;19.60;1.00;;;;;;5022065;28;20041;-85
2022/08/29 07:59:53;;;;;;;11.35;3.40;;;19.60;99.90;;;;;;4993804;28;20410;-85
2022/08/29 08:02:19;;;;;;;12.13;3.75;;;19.60;99.90;;;;;;5036503;28;20050;-86
2022/08/29 08:04:45;;;;;;;8.48;3.22;;;19.80;1.00;;;;;;5039033;28;20057;-85
2022/08/29 08:07:15;;;;;;;10.27;3.92;;;20.00;99.90;;;;;;5051145;28;20140;-85
2022/08/29 08:09:41;;;;;;;9.93;3.15;;;20.20;99.90;;;;;;4993191;28;20046;-85
2022/08/29 08:12:08;;;;;;;11.85;3.22;;;20.40;99.90;;;;;;4993746;28;20388;-85
2022/08/29 08:14:34;;;;;;;11.27;3.38;;;20.20;99.90;;;;;;5008392;28;20037;-84
2022/08/29 08:16:59;;;;;;;14.32;3.53;;;20.40;99.90;;;;;;4989488;28;20045;-85
2022/08/29 08:19:26;;;;;;;11.63;3.55;;;20.70;99.90;;;;;;5018138;28;20044;-85
2022/08/29 08:21:52;;;;;;;15.02;3.40;;;20.60;99.80;;;;;;4987312;28;20124;-85
2022/08/29 08:24:18;;;;;;;13.63;3.58;;;20.90;99.90;;;;;;4987231;28;20045;-85
2022/08/29 08:26:44;;;;;;;11.77;3.58;;;20.20;99.90;;;;;;5006181;28;20061;-85
2022/08/29 08:29:11;;;;;;;9.40;3.40;;;20.00;99.90;;;;;;5043741;28;20115;-85
2022/08/29 08:31:42;;;;;;;9.30;3.30;;;20.00;1.00;;;;;;5008963;28;20465;-85
2022/08/29 08:34:08;;;;;;;9.82;3.45;;;19.90;98.70;;;;;;4999481;28;20069;-85
2022/08/29 08:36:37;;;;;;;9.65;3.58;;;19.80;99.90;;;;;;5007563;28;20047;-85
2022/08/29 08:39:05;;;;;;;10.77;3.58;;;19.60;99.90;;;;;;4989616;28;20042;-85
2022/08/29 08:41:59;;;;;;;13.90;3.60;;;19.80;99.90;;;;;;5024389;28;20046;-85
2022/08/29 08:44:40;;;;;;;9.80;3.50;;;19.70;99.90;;;;;;5019920;28;20511;-85
2022/08/29 08:47:08;;;;;;;10.93;3.53;;;19.70;99.90;;;;;;5022293;28;20120;-85
2022/08/29 08:49:53;;;;;;;9.52;3.80;;;19.80;99.90;;;;;;5041272;28;20045;-85
2022/08/29 08:52:38;;;;;;;;;;;20.00;99.90;;;;;;5017521;28;20120;-85
2022/08/29 08:55:17;;;;;;;8.40;3.83;;;20.00;99.90;;;;;;5014727;28;20304;-85
2022/08/29 08:58:10;;;;;;;8.82;3.63;;;20.30;99.90;;;;;;5013149;28;20037;-85
2022/08/29 09:00:45;;;;;;;10.70;4.13;;;20.30;99.90;;;;;;5000073;28;20069;-85
2022/08/29 09:03:24;;;;;;;19.88;4.40;;;20.00;99.90;;;;;;4998066;28;20675;-85
2022/08/29 09:06:25;;;;;;;13.57;3.97;;;19.90;99.90;;;;;;5020167;28;20473;-85
2022/08/29 09:09:11;;;;;;;8.27;3.95;;;19.90;99.90;;;;;;4997007;28;20692;-84
2022/08/29 09:12:00;;;;;;;7.95;3.63;;;20.20;99.90;;;;;;4986360;28;20115;-85
2022/08/29 09:14:46;;;;;;;12.18;3.65;;;20.30;25.40;;;;;;5034518;28;20063;-85
2022/08/29 09:17:20;;;;;;;10.85;4.07;;;20.60;1.00;;;;;;5008861;28;20064;-84
2022/08/29 09:19:47;;;;;;;14.20;4.37;;;20.70;99.90;;;;;;5022077;28;20052;-85
2022/08/29 09:22:26;;;;;;;11.13;3.78;;;20.60;99.90;;;;;;4986302;28;20443;-85
2022/08/29 09:25:01;;;;;;;9.23;3.33;;;20.50;92.60;;;;;;5002312;28;20037;-85
2022/08/29 09:27:30;;;;;;;10.35;4.13;;;20.50;1.00;;;;;;5026862;28;20045;-85
2022/08/29 09:30:20;;;;;;;11.52;3.78;;;20.60;99.90;;;;;;5010232;28;20104;-85
2022/08/29 09:32:56;;;;;;;11.27;4.60;;;20.90;99.90;;;;;;5017451;28;20058;-85
2022/08/29 09:35:45;;;;;;;10.05;3.90;;;20.80;99.90;;;;;;5018907;28;20339;-84
2022/08/29 09:38:16;;;;;;;7.90;3.70;;;20.80;99.90;;;;;;4984152;28;20038;-85
2022/08/29 09:40:45;;;;;;;10.20;3.90;;;20.90;99.90;;;;;;5021310;28;20106;-84
2022/08/29 09:43:18;;;;;;;9.02;3.60;;;21.20;1.00;;;;;;5022607;28;20041;-85
2022/08/29 09:46:15;;;;;;;9.00;3.55;;;21.30;99.90;;;;;;5005210;28;20404;-85
2022/08/29 09:48:59;;;;;;;11.90;3.55;;;21.20;1.00;;;;;;5025615;28;20045;-85
2022/08/29 09:51:31;;;;;;;8.10;3.70;;;21.10;1.00;;;;;;5018162;28;20049;-85
2022/08/29 09:54:24;;;;;;;11.38;3.83;;;21.30;99.90;;;;;;4985408;28;20400;-85
2022/08/29 09:57:23;;;;;;;6.80;3.53;;;21.10;99.90;;;;;;5022258;28;20409;-85
2022/08/29 10:00:13;;;;;;;9.65;3.75;;;21.50;99.90;;;;;;5023719;28;20355;-85
2022/08/29 10:02:42;;;;;;;8.32;3.53;;;22.00;99.90;;;;;;5028962;28;20038;-85
2022/08/29 10:05:24;;;;;;;8.75;3.65;;;22.30;99.90;;;;;;5018046;28;20029;-84
2022/08/29 10:07:51;;;;;;;7.78;3.33;;;22.40;99.90;;;;;;4985358;28;20398;-85
2022/08/29 10:10:24;;;;;;;8.57;3.70;;;22.40;92.40;;;;;;4986948;28;20061;-85
2022/08/29 10:13:10;;;;;;;7.65;3.60;;;22.20;99.90;;;;;;4987238;28;20057;-85
2022/08/29 10:15:52;;;;;;;6.55;3.10;;;22.90;99.90;;;;;;4987450;28;20212;-84
2022/08/29 10:18:50;;;;;;;8.02;3.38;;;23.00;99.90;;;;;;5001278;28;20223;-84
2022/08/29 10:21:41;;;;;;;8.35;3.45;;;22.20;99.90;;;;;;5015008;28;20323;-85
2022/08/29 10:24:18;;;;;;;8.63;3.40;;;22.10;87.50;;;;;;5003373;28;20073;-85
2022/08/29 10:27:03;;;;;;;7.53;3.10;;;22.50;3.20;;;;;;5005126;28;20046;-85
2022/08/29 10:29:38;;;;;;;;;;;22.20;99.90;;;;;;5006430;28;20461;-85
2022/08/29 10:32:31;;;;;;;9.82;3.83;;;22.60;90.60;;;;;;5037646;28;19983;-84
2022/08/29 10:35:13;;;;;;;11.88;3.63;;;22.80;99.90;;;;;;5036396;28;20045;-84
2022/08/29 10:37:51;;;;;;;12.70;4.00;;;23.00;1.00;;;;;;4997129;28;20066;-84
2022/08/29 10:40:41;;;;;;;10.13;3.70;;;22.90;99.90;;;;;;5002187;28;20046;-83
2022/08/29 10:43:32;;;;;;;17.88;4.32;;;22.90;1.00;;;;;;5015755;28;20049;-83
2022/08/29 10:46:17;;;;;;;8.05;3.85;;;22.90;1.00;;;;;;4995698;28;20229;-82
2022/08/29 10:48:54;;;;;;;8.15;3.60;;;23.30;1.00;;;;;;5019658;28;20068;-83
2022/08/29 10:51:41;;;;;;;7.82;3.65;;;22.90;99.90;;;;;;4984600;28;20044;-83
2022/08/29 10:54:41;;;;;;;12.18;3.97;;;23.00;1.00;;;;;;4982617;28;20037;-82
2022/08/29 10:57:08;;;;;;;9.35;3.47;;;22.50;1.00;;;;;;4988220;28;20052;-83
2022/08/29 10:59:49;;;;;;;13.57;3.88;;;22.50;99.90;;;;;;5002159;28;20038;-83
2022/08/29 11:02:34;;;;;;;12.43;4.00;;;22.30;99.90;;;;;;5003254;28;20073;-83
2022/08/29 11:05:08;;;;;;;13.73;4.53;;;23.10;1.00;;;;;;5005456;28;20049;-83
2022/08/29 11:07:40;;;;;;;11.35;4.20;;;22.70;99.90;;;;;;5036280;28;20674;-83
2022/08/29 11:10:25;;;;;;;7.43;3.55;;;23.20;99.90;;;;;;5018298;28;20049;-82
2022/08/29 11:12:57;;;;;;;7.57;3.97;;;22.80;99.90;;;;;;4992573;28;20517;-85
2022/08/29 11:15:54;;;;;;;14.05;4.07;;;22.60;1.00;;;;;;5027486;28;20088;-84
2022/08/29 11:18:28;;;;;;;11.48;4.10;;;23.40;1.00;;;;;;5023884;28;20052;-85
2022/08/29 11:21:11;;;;;;;10.38;3.88;;;23.40;99.90;;;;;;5014763;28;20067;-85
2022/08/29 11:23:46;;;;;;;8.27;3.33;;;24.30;99.90;;;;;;5047673;28;20344;-85
2022/08/29 11:26:11;;;;;;;7.68;3.75;;;24.10;1.00;;;;;;5038504;28;20501;-84
2022/08/29 11:28:43;;;;;;;9.40;3.65;;;23.80;1.00;;;;;;4994093;28;20042;-85
2022/08/29 11:31:22;;;;;;;10.38;4.25;;;23.90;1.00;;;;;;4989511;28;20057;-84
2022/08/29 11:34:11;;;;;;;10.35;3.50;;;23.70;6.30;;;;;;5009174;28;20049;-83
2022/08/29 11:36:51;;;;;;;7.70;3.20;;;24.60;1.00;;;;;;5012738;28;20120;-83
2022/08/29 11:39:32;;;;;;;7.95;3.38;;;25.70;1.00;;;;;;4991647;28;20181;-84
2022/08/29 11:42:02;;;;;;;11.27;3.50;;;25.80;99.90;;;;;;5030678;28;20128;-84
2022/08/29 11:44:44;;;;;;;9.38;3.58;;;24.10;99.90;;;;;;4996975;28;20163;-85
2022/08/29 11:47:43;;;;;;;9.18;3.30;;;23.50;99.90;;;;;;5041408;28;20042;-84
2022/08/29 11:50:15;;;;;;;7.40;3.22;;;23.80;1.00;;;;;;5011727;28;20040;-85
2022/08/29 11:53:06;;;;;;;;;;;23.70;1.00;;;;;;5009542;28;20046;-84
2022/08/29 11:55:43;;;;;;;7.68;2.67;;;23.80;99.90;;;;;;5050603;28;19929;-84
2022/08/29 11:58:15;;;;;;;7.72;2.80;;;23.80;99.90;;;;;;4990735;28;20045;-85
2022/08/29 12:00:55;;;;;;;7.28;2.95;;;23.60;99.90;;;;;;5022402;28;20049;-84
2022/08/29 12:03:33;;;;;;;6.97;2.85;;;23.40;99.90;;;;;;5021962;28;20069;-85
2022/08/29 12:06:13;;;;;;;16.45;3.00;;;23.20;99.90;;;;;;4992326;28;20042;-85
2022/08/29 12:08:49;;;;;;;6.90;2.92;;;22.60;99.90;;;;;;5036089;28;20045;-85
2022/08/29 12:11:14;;;;;;;6.65;2.75;;;22.20;1.00;;;;;;5009531;28;20537;-84
2022/08/29 12:13:46;;;;;;;5.00;2.55;;;22.70;1.00;;;;;;5043146;28;20045;-85
2022/08/29 12:16:15;;;;;;;8.02;3.25;;;22.80;1.00;;;;;;5005072;28;20168;-85
2022/08/29 12:18:50;;;;;;;6.10;3.05;;;22.50;99.90;;;;;;5024697;28;20092;-85
2022/08/29 12:21:43;;;;;;;6.47;2.45;;;22.80;99.90;;;;;;5023092;28;20151;-85
2022/08/29 12:24:40;;;;;;;5.93;2.75;;;23.00;99.90;;;;;;5052305;28;20248;-85
2022/08/29 12:27:21;;;;;;;8.05;2.97;;;22.70;99.90;;;;;;5033095;28;20038;-85
2022/08/29 12:29:50;;;;;;;8.00;3.15;;;22.30;1.00;;;;;;5007309;28;20045;-85
2022/08/29 12:32:40;;;;;;;7.15;2.60;;;22.80;1.00;;;;;;5033619;28;20427;-84
2022/08/29 12:35:35;;;;;;;8.80;2.65;;;22.70;1.00;;;;;;4992516;28;20038;-84
2022/08/29 12:38:23;;;;;;;12.87;3.00;;;22.60;1.00;;;;;;5003657;28;20120;-85
2022/08/29 12:41:10;;;;;;;5.35;2.50;;;22.10;99.90;;;;;;4989980;28;20081;-84
2022/08/29 12:43:42;;;;;;;7.53;2.60;;;22.90;1.00;;;;;;5012932;28;20529;-84
2022/08/29 12:46:15;;;;;;;5.07;2.67;;;23.00;99.90;;;;;;5018027;28;20117;-85
2022/08/29 12:48:48;;;;;;;8.52;3.05;;;22.60;99.90;;;;;;5022951;28;20072;-84
2022/08/29 12:51:40;;;;;;;4.03;2.55;;;22.60;1.00;;;;;;4992631;28;20577;-84
2022/08/29 12:54:08;;;;;;;6.47;2.67;;;22.50;1.00;;;;;;5007677;28;20520;-85
2022/08/29 12:56:38;;;;;;;6.07;2.88;;;22.50;99.90;;;;;;5006134;28;20041;-84
2022/08/29 12:59:04;;;;;;;5.50;2.85;;;23.00;99.90;;;;;;5023494;28;20069;-85
2022/08/29 13:01:36;;;;;;;5.97;2.80;;;23.20;99.90;;;;;;5017646;28;20034;-84
2022/08/29 13:04:11;;;;;;;7.30;2.65;;;23.80;99.90;;;;;;5033457;28;20038;-84
2022/08/29 13:06:59;;;;;;;4.10;2.38;;;24.00;99.90;;;;;;4990655;28;20100;-85
2022/08/29 13:09:41;;;;;;;5.30;2.40;;;24.00;99.90;;;;;;5000441;28;20116;-84
2022/08/29 13:12:15;;;;;;;9.48;3.00;;;24.30;99.90;;;;;;5023284;28;20053;-85